createdAt,value
2023-04-18T00:00:24.074Z,99143.84
2023-04-18T00:02:53.946Z,99160.78
2023-04-18T00:05:22.190Z,99172.44
2023-04-18T00:07:50.100Z,99167.16
2023-04-18T00:10:19.209Z,99166.88
2023-04-18T00:12:47.237Z,99164.97
2023-04-18T00:15:14.963Z,99161.13
2023-04-18T00:17:43.619Z,99168.75
2023-04-18T00:20:12.792Z,99172.91
2023-04-18T00:22:42.566Z,99168.75
2023-04-18T00:25:11.145Z,99165.69
2023-04-18T00:27:40.346Z,99152.66
2023-04-18T00:30:10.937Z,99165.19
2023-04-18T00:32:38.771Z,99168.53
2023-04-18T00:35:07.427Z,99165.78
2023-04-18T00:37:35.297Z,99171.88
2023-04-18T00:40:03.033Z,99170.13
2023-04-18T00:42:31.061Z,99174.16
2023-04-18T00:45:00.175Z,99175.44
2023-04-18T00:47:27.958Z,99164.34
2023-04-18T00:49:55.956Z,99162.06
2023-04-18T00:52:24.328Z,99171.25
2023-04-18T00:54:52.538Z,99179.63
2023-04-18T00:57:20.455Z,99180.44
2023-04-18T00:59:48.263Z,99185.25
2023-04-18T01:02:17.480Z,99191.19
2023-04-18T01:04:45.446Z,99191.13
2023-04-18T01:07:13.159Z,99195.50
2023-04-18T01:09:41.168Z,99202.81
2023-04-18T01:12:08.989Z,99203.88
2023-04-18T01:14:36.749Z,99203.88
2023-04-18T01:17:04.569Z,99193.09
2023-04-18T01:19:33.701Z,99202.00
2023-04-18T01:22:01.411Z,99201.16
2023-04-18T01:24:32.132Z,99217.88
2023-04-18T01:27:01.814Z,99217.47
2023-04-18T01:29:29.623Z,99219.03
2023-04-18T01:31:57.776Z,99229.03
2023-04-18T01:34:25.725Z,99230.72
2023-04-18T01:36:53.454Z,99233.31
2023-04-18T01:39:21.229Z,99238.78
2023-04-18T01:41:50.446Z,99235.94
2023-04-18T01:44:18.218Z,99254.78
2023-04-18T01:46:47.070Z,99252.03
2023-04-18T01:49:42.853Z,99259.78
2023-04-18T01:52:10.570Z,99264.50
2023-04-18T01:54:38.330Z,99264.03
2023-04-18T01:57:07.420Z,99275.16
2023-04-18T01:59:35.213Z,99278.06
2023-04-18T02:02:03.381Z,99272.84
2023-04-18T02:04:31.309Z,99276.28
2023-04-18T02:06:59.103Z,99290.41
2023-04-18T02:09:26.873Z,99285.78
2023-04-18T02:11:56.236Z,99285.59
2023-04-18T02:14:25.984Z,99303.47
2023-04-18T02:16:53.796Z,99293.63
2023-04-18T02:19:22.522Z,99294.06
2023-04-18T02:21:50.277Z,99299.69
2023-04-18T02:24:18.089Z,99298.16
2023-04-18T02:26:45.893Z,99307.34
2023-04-18T02:29:13.672Z,99311.00
2023-04-18T02:31:43.119Z,99307.13
2023-04-18T02:34:11.099Z,99321.22
2023-04-18T02:36:38.933Z,99318.81
2023-04-18T02:39:06.728Z,99323.81
2023-04-18T02:41:37.572Z,99325.53
2023-04-18T02:44:05.361Z,99327.59
2023-04-18T02:46:37.116Z,99331.38
2023-04-18T02:49:09.007Z,99327.50
2023-04-18T02:51:36.788Z,99321.66
2023-04-18T02:54:04.940Z,99332.13
2023-04-18T02:56:45.622Z,99328.03
2023-04-18T02:59:19.795Z,99339.63
2023-04-18T03:02:13.771Z,99356.97
2023-04-18T03:04:50.218Z,99380.91
2023-04-18T03:07:18.039Z,99381.25
2023-04-18T03:09:45.916Z,99387.59
2023-04-18T03:12:22.411Z,99378.09
2023-04-18T03:14:50.262Z,99388.66
2023-04-18T03:17:19.061Z,99394.66
2023-04-18T03:19:50.932Z,99398.19
2023-04-18T03:22:20.841Z,99394.91
2023-04-18T03:24:56.350Z,99407.72
2023-04-18T03:27:37.368Z,99399.00
2023-04-18T03:30:06.469Z,99401.44
2023-04-18T03:32:35.269Z,99401.31
2023-04-18T03:35:05.143Z,99403.84
2023-04-18T03:37:33.531Z,99408.84
2023-04-18T03:40:05.315Z,99407.91
2023-04-18T03:42:33.090Z,99412.19
2023-04-18T03:45:01.082Z,99416.09
2023-04-18T03:47:30.278Z,99417.97
2023-04-18T03:49:59.580Z,99427.78
2023-04-18T03:52:29.902Z,99427.88
2023-04-18T03:54:57.984Z,99432.94
2023-04-18T03:57:31.176Z,99433.66
2023-04-18T03:59:59.173Z,99425.25
2023-04-18T04:02:28.953Z,99440.81
2023-04-18T04:04:56.918Z,99441.09
2023-04-18T04:07:24.849Z,99435.41
2023-04-18T04:09:54.106Z,99436.56
2023-04-18T04:12:21.860Z,99438.94
2023-04-18T04:14:50.193Z,99443.00
2023-04-18T04:17:18.176Z,99442.63
2023-04-18T04:19:46.291Z,99435.00
2023-04-18T04:22:19.083Z,99434.25
2023-04-18T04:24:47.610Z,99437.22
2023-04-18T04:27:20.637Z,99452.13
2023-04-18T04:29:49.275Z,99459.44
2023-04-18T04:32:20.373Z,99457.84
2023-04-18T04:34:49.411Z,99462.16
2023-04-18T04:37:18.682Z,99462.56
2023-04-18T04:40:12.509Z,99474.69
2023-04-18T04:43:01.897Z,99482.34
2023-04-18T04:45:36.385Z,99487.03
2023-04-18T04:48:04.564Z,99483.50
2023-04-18T04:50:34.513Z,99484.31
2023-04-18T04:53:02.266Z,99492.06
2023-04-18T04:55:30.271Z,99497.66
2023-04-18T04:57:58.057Z,99513.06
2023-04-18T05:00:37.724Z,99511.34
2023-04-18T05:03:05.872Z,99509.38
2023-04-18T05:05:33.844Z,99503.38
2023-04-18T05:08:01.655Z,99521.31
2023-04-18T05:10:29.422Z,99527.69
2023-04-18T05:12:57.204Z,99539.56
2023-04-18T05:15:25.032Z,99543.94
2023-04-18T05:17:54.223Z,99548.22
2023-04-18T05:20:22.076Z,99552.28
2023-04-18T05:22:49.866Z,99557.09
2023-04-18T05:25:18.009Z,99567.34
2023-04-18T05:27:46.347Z,99573.53
2023-04-18T05:30:14.422Z,99569.97
2023-04-18T05:32:42.376Z,99584.94
2023-04-18T05:35:11.596Z,99592.59
2023-04-18T05:37:39.364Z,99605.63
2023-04-18T05:40:09.236Z,99606.13
2023-04-18T05:42:37.015Z,99613.75
2023-04-18T05:45:05.087Z,99618.56
2023-04-18T05:47:33.705Z,99621.38
2023-04-18T05:50:02.745Z,99630.91
2023-04-18T05:52:31.876Z,99632.25
2023-04-18T05:54:59.644Z,99626.78
2023-04-18T05:57:27.510Z,99627.22
2023-04-18T05:59:57.657Z,99625.84
2023-04-18T06:02:25.736Z,99626.13
2023-04-18T06:05:00.018Z,99633.13
2023-04-18T06:07:31.879Z,99633.41
2023-04-18T06:09:59.682Z,99633.63
2023-04-18T06:12:27.443Z,99624.09
2023-04-18T06:14:55.224Z,99623.00
2023-04-18T06:17:23.051Z,99614.00
2023-04-18T06:19:50.839Z,99623.25
2023-04-18T06:22:18.992Z,99626.34
2023-04-18T06:24:48.072Z,99621.13
2023-04-18T06:27:30.132Z,99617.84
2023-04-18T06:29:59.154Z,99616.09
2023-04-18T06:32:26.989Z,99610.75
2023-04-18T06:34:54.819Z,99616.28
2023-04-18T06:37:22.690Z,99618.72
2023-04-18T06:39:51.782Z,99634.41
2023-04-18T06:42:22.036Z,99627.22
2023-04-18T06:44:50.203Z,99628.59
2023-04-18T06:47:17.958Z,99619.25
2023-04-18T06:49:45.706Z,99625.25
2023-04-18T06:52:13.444Z,99617.81
2023-04-18T06:54:41.120Z,99624.31
2023-04-18T06:57:10.346Z,99626.31
2023-04-18T06:59:38.579Z,99621.91
2023-04-18T07:02:06.360Z,99618.75
2023-04-18T07:04:34.168Z,99628.81
2023-04-18T07:07:03.790Z,99622.09
2023-04-18T07:09:31.494Z,99632.44
2023-04-18T07:11:59.340Z,99629.38
2023-04-18T07:14:28.566Z,99630.88
2023-04-18T07:16:57.711Z,99635.38
2023-04-18T07:19:25.436Z,99637.03
2023-04-18T07:21:53.979Z,99647.47
2023-04-18T07:24:23.576Z,99651.22
2023-04-18T07:26:53.146Z,99652.78
2023-04-18T07:29:22.603Z,99662.94
2023-04-18T07:31:52.038Z,99664.53
2023-04-18T07:34:19.816Z,99671.94
2023-04-18T07:36:47.588Z,99656.63
2023-04-18T07:39:15.304Z,99660.34
2023-04-18T07:41:43.393Z,99662.03
2023-04-18T07:44:11.655Z,99662.59
2023-04-18T07:46:39.592Z,99662.59
2023-04-18T07:49:08.729Z,99676.50
2023-04-18T07:51:36.492Z,99667.47
2023-04-18T07:54:04.228Z,99679.28
2023-04-18T07:56:32.003Z,99686.03
2023-04-18T07:58:59.736Z,99687.03
2023-04-18T08:01:27.704Z,99702.44
2023-04-18T08:03:57.773Z,99717.09
2023-04-18T08:06:27.267Z,99715.63
2023-04-18T08:08:55.006Z,99720.19
2023-04-18T08:11:22.799Z,99727.56
2023-04-18T08:13:50.563Z,99740.91
2023-04-18T08:16:18.360Z,99748.56
2023-04-18T08:18:46.173Z,99756.13
2023-04-18T08:21:14.004Z,99757.78
2023-04-18T08:23:43.073Z,99774.22
2023-04-18T08:26:10.834Z,99788.81
2023-04-18T08:28:38.608Z,99792.00
2023-04-18T08:31:06.556Z,99782.28
2023-04-18T08:33:34.299Z,99775.72
2023-04-18T08:36:02.044Z,99776.81
2023-04-18T08:38:29.787Z,99774.19
2023-04-18T08:40:58.970Z,99789.13
2023-04-18T08:43:26.886Z,99786.53
2023-04-18T08:45:58.667Z,99804.81
2023-04-18T08:48:27.869Z,99805.94
2023-04-18T08:50:58.048Z,99821.75
2023-04-18T08:53:26.554Z,99827.72
2023-04-18T08:55:56.299Z,99820.25
2023-04-18T08:58:27.183Z,99833.50
2023-04-18T09:00:55.347Z,99834.38
2023-04-18T09:03:37.512Z,99841.09
2023-04-18T09:06:13.728Z,99847.84
2023-04-18T09:08:43.315Z,99866.56
2023-04-18T09:11:26.733Z,99866.16
2023-04-18T09:13:56.396Z,99868.78
2023-04-18T09:16:24.960Z,99872.78
2023-04-18T09:19:12.995Z,99884.09
2023-04-18T09:21:42.852Z,99885.59
2023-04-18T09:24:20.725Z,99886.06
2023-04-18T09:26:50.814Z,99884.66
2023-04-18T09:29:22.456Z,99884.28
2023-04-18T09:31:59.916Z,99880.25
2023-04-18T09:34:27.856Z,99902.47
2023-04-18T09:37:08.829Z,99910.09
2023-04-18T09:39:37.934Z,99904.31
2023-04-18T09:42:05.707Z,99895.88
2023-04-18T09:44:34.740Z,99896.63
2023-04-18T09:47:02.450Z,99902.44
2023-04-18T09:49:30.252Z,99884.19
2023-04-18T09:51:58.027Z,99891.56
2023-04-18T09:54:26.039Z,99884.19
2023-04-18T09:56:55.441Z,99880.38
2023-04-18T09:59:35.389Z,99874.66
2023-04-18T10:02:03.736Z,99885.88
2023-04-18T10:04:31.938Z,99881.66
2023-04-18T10:06:59.756Z,99891.56
2023-04-18T10:09:27.915Z,99885.44
2023-04-18T10:11:57.013Z,99892.44
2023-04-18T10:14:25.270Z,99888.53
2023-04-18T10:16:55.279Z,99884.88
2023-04-18T10:19:26.776Z,99869.34
2023-04-18T10:21:55.474Z,99882.25
2023-04-18T10:24:48.992Z,99872.13
2023-04-18T10:27:17.242Z,99850.41
2023-04-18T10:29:48.309Z,99859.25
2023-04-18T10:32:17.595Z,99856.44
2023-04-18T10:34:57.632Z,99847.00
2023-04-18T10:37:31.670Z,99843.44
2023-04-18T10:40:02.144Z,99852.53
2023-04-18T10:43:02.502Z,99842.97
2023-04-18T10:45:36.360Z,99853.75
2023-04-18T10:48:24.891Z,99839.44
2023-04-18T10:51:18.317Z,99854.22
2023-04-18T10:53:49.368Z,99845.97
2023-04-18T10:56:17.855Z,99868.03
2023-04-18T10:58:52.962Z,99860.34
2023-04-18T11:01:27.077Z,99857.34
2023-04-18T11:04:00.154Z,99865.56
2023-04-18T11:06:28.629Z,99860.34
2023-04-18T11:09:10.266Z,99855.28
2023-04-18T11:11:41.627Z,99857.47
2023-04-18T11:14:09.696Z,99853.56
2023-04-18T11:16:37.757Z,99835.91
2023-04-18T11:19:21.260Z,99840.56
2023-04-18T11:21:49.174Z,99850.75
2023-04-18T11:24:23.201Z,99834.38
2023-04-18T11:26:55.796Z,99836.13
2023-04-18T11:29:24.100Z,99823.47
2023-04-18T11:31:53.045Z,99831.44
2023-04-18T11:34:24.906Z,99842.94
2023-04-18T11:36:55.323Z,99843.66
2023-04-18T11:39:23.415Z,99841.88
2023-04-18T11:41:51.321Z,99830.16
2023-04-18T11:44:19.518Z,99830.66
2023-04-18T11:46:52.479Z,99837.22
2023-04-18T11:49:28.639Z,99827.75
2023-04-18T11:51:56.631Z,99817.31
2023-04-18T11:54:45.570Z,99824.72
2023-04-18T11:57:23.881Z,99839.47
2023-04-18T11:59:52.615Z,99825.06
2023-04-18T12:02:20.839Z,99835.78
2023-04-18T12:04:54.507Z,99843.56
2023-04-18T12:07:43.035Z,99836.66
2023-04-18T12:10:26.980Z,99841.53
2023-04-18T12:12:55.703Z,99840.41
2023-04-18T12:15:27.174Z,99844.31
2023-04-18T12:17:58.789Z,99857.03
2023-04-18T12:20:34.826Z,99852.91
2023-04-18T12:23:03.498Z,99854.75
2023-04-18T12:25:32.101Z,99852.00
2023-04-18T12:28:00.470Z,99862.34
2023-04-18T12:30:31.209Z,99864.78
2023-04-18T12:33:04.878Z,99865.41
2023-04-18T12:35:34.106Z,99855.22
2023-04-18T12:38:06.021Z,99851.88
2023-04-18T12:40:33.835Z,99857.22
2023-04-18T12:43:03.816Z,99854.31
2023-04-18T12:45:36.653Z,99853.84
2023-04-18T12:48:07.292Z,99866.53
2023-04-18T12:50:38.268Z,99876.28
2023-04-18T12:53:08.856Z,99882.25
2023-04-18T12:55:37.310Z,99899.44
2023-04-18T12:58:05.043Z,99894.78
2023-04-18T13:00:33.293Z,99908.72
2023-04-18T13:03:01.523Z,99905.25
2023-04-18T13:05:33.172Z,99919.25
2023-04-18T13:08:16.077Z,99917.00
2023-04-18T13:10:45.567Z,99918.41
2023-04-18T13:13:13.616Z,99922.69
2023-04-18T13:15:41.470Z,99925.06
2023-04-18T13:18:09.446Z,99932.34
2023-04-18T13:20:38.915Z,99943.47
2023-04-18T13:23:11.420Z,99941.03
2023-04-18T13:25:39.623Z,99948.31
2023-04-18T13:28:10.418Z,99952.34
2023-04-18T13:30:38.256Z,99946.38
2023-04-18T13:33:06.618Z,99942.34
2023-04-18T13:35:34.420Z,99951.03
2023-04-18T13:38:02.297Z,99942.06
2023-04-18T13:40:33.444Z,99943.53
2023-04-18T13:43:03.587Z,99938.78
2023-04-18T13:45:34.088Z,99934.94
2023-04-18T13:48:02.088Z,99939.25
2023-04-18T13:50:29.982Z,99929.16
2023-04-18T13:52:57.769Z,99935.25
2023-04-18T13:55:26.265Z,99936.72
2023-04-18T13:57:55.391Z,99931.22
2023-04-18T14:00:23.219Z,99924.75
2023-04-18T14:02:53.574Z,99923.44
2023-04-18T14:05:21.944Z,99930.34
2023-04-18T14:07:49.785Z,99922.03
2023-04-18T14:10:17.662Z,99911.94
2023-04-18T14:12:45.375Z,99916.13
2023-04-18T14:15:14.829Z,99916.63
2023-04-18T14:17:44.848Z,99914.56
2023-04-18T14:20:15.558Z,99913.06
2023-04-18T14:22:43.285Z,99915.84
2023-04-18T14:25:11.202Z,99909.50
2023-04-18T14:27:39.141Z,99902.13
2023-04-18T14:30:08.769Z,99904.91
2023-04-18T14:32:38.178Z,99913.03
2023-04-18T14:35:07.150Z,99893.91
2023-04-18T14:37:35.433Z,99891.19
2023-04-18T14:40:03.174Z,99890.59
2023-04-18T14:42:31.130Z,99887.25
2023-04-18T14:44:59.105Z,99888.25
2023-04-18T14:47:31.835Z,99902.34
2023-04-18T14:50:01.124Z,99888.63
2023-04-18T14:52:28.820Z,99890.28
2023-04-18T14:54:56.528Z,99872.44
2023-04-18T14:57:24.374Z,99878.75
2023-04-18T14:59:54.376Z,99875.81
2023-04-18T15:02:22.350Z,99872.19
2023-04-18T15:04:50.952Z,99871.53
2023-04-18T15:07:27.513Z,99860.03
2023-04-18T15:09:55.226Z,99848.91
2023-04-18T15:12:22.956Z,99855.72
2023-04-18T15:14:50.714Z,99846.81
2023-04-18T15:17:18.436Z,99843.00
2023-04-18T15:19:46.109Z,99834.88
2023-04-18T15:22:13.829Z,99824.09
2023-04-18T15:24:42.865Z,99826.06
2023-04-18T15:27:10.924Z,99831.66
2023-04-18T15:29:38.963Z,99832.81
2023-04-18T15:32:07.214Z,99835.31
2023-04-18T15:34:34.986Z,99819.88
2023-04-18T15:37:02.687Z,99827.91
2023-04-18T15:39:30.386Z,99827.47
2023-04-18T15:41:59.455Z,99822.34
2023-04-18T15:44:27.548Z,99824.84
2023-04-18T15:46:55.550Z,99821.91
2023-04-18T15:49:23.256Z,99831.38
2023-04-18T15:51:51.017Z,99830.94
2023-04-18T15:54:18.725Z,99830.50
2023-04-18T15:56:46.436Z,99837.63
2023-04-18T15:59:15.475Z,99844.16
2023-04-18T16:01:45.690Z,99835.06
2023-04-18T16:04:14.273Z,99830.50
2023-04-18T16:06:42.527Z,99838.72
2023-04-18T16:09:10.345Z,99843.16
2023-04-18T16:11:38.023Z,99836.97
2023-04-18T16:14:05.765Z,99846.06
2023-04-18T16:16:35.024Z,99842.09
2023-04-18T16:19:04.078Z,99843.97
2023-04-18T16:21:32.550Z,99842.84
2023-04-18T16:24:00.441Z,99844.63
2023-04-18T16:26:28.960Z,99853.19
2023-04-18T16:28:57.035Z,99851.78
2023-04-18T16:31:25.013Z,99850.88
2023-04-18T16:33:54.121Z,99848.19
2023-04-18T16:36:21.946Z,99848.19
2023-04-18T16:38:49.738Z,99845.47
2023-04-18T16:41:17.514Z,99848.81
2023-04-18T16:43:45.243Z,99837.69
2023-04-18T16:46:13.909Z,99834.56
2023-04-18T16:48:41.751Z,99850.88
2023-04-18T16:51:13.180Z,99855.22
2023-04-18T16:53:45.729Z,99846.56
2023-04-18T16:56:13.552Z,99856.19
2023-04-18T16:58:41.515Z,99854.72
2023-04-18T17:01:15.441Z,99859.16
2023-04-18T17:03:43.217Z,99865.31
2023-04-18T17:06:12.382Z,99867.03
2023-04-18T17:08:40.101Z,99881.25
2023-04-18T17:11:08.173Z,99862.94
2023-04-18T17:13:36.300Z,99867.34
2023-04-18T17:16:04.313Z,99865.22
2023-04-18T17:18:32.053Z,99867.19
2023-04-18T17:20:59.969Z,99879.59
2023-04-18T17:23:30.331Z,99871.88
2023-04-18T17:25:59.303Z,99860.09
2023-04-18T17:28:29.274Z,99846.09
2023-04-18T17:30:57.518Z,99833.09
2023-04-18T17:33:25.397Z,99827.13
2023-04-18T17:35:55.366Z,99819.50
2023-04-18T17:38:25.586Z,99811.84
2023-04-18T17:41:01.163Z,99811.94
2023-04-18T17:43:28.999Z,99815.13
2023-04-18T17:45:56.914Z,99810.25
2023-04-18T17:48:24.675Z,99807.72
2023-04-18T17:50:54.912Z,99811.00
2023-04-18T17:53:22.739Z,99808.59
2023-04-18T17:55:52.172Z,99796.31
2023-04-18T17:58:22.397Z,99797.69
2023-04-18T18:00:52.248Z,99801.69
2023-04-18T18:03:20.174Z,99813.22
2023-04-18T18:05:48.854Z,99805.00
2023-04-18T18:08:17.252Z,99813.66
2023-04-18T18:10:47.137Z,99821.84
2023-04-18T18:13:15.246Z,99817.88
2023-04-18T18:15:47.233Z,99816.19
2023-04-18T18:18:29.754Z,99826.03
2023-04-18T18:20:58.230Z,99829.06
2023-04-18T18:23:26.119Z,99848.41
2023-04-18T18:25:53.911Z,99852.72
2023-04-18T18:28:21.661Z,99876.88
2023-04-18T18:30:50.751Z,99860.06
2023-04-18T18:33:19.161Z,99868.25
2023-04-18T18:35:47.275Z,99873.28
2023-04-18T18:38:15.080Z,99877.72
2023-04-18T18:40:43.259Z,99880.00
2023-04-18T18:43:11.041Z,99883.59
2023-04-18T18:45:38.970Z,99883.19
2023-04-18T18:48:08.764Z,99893.66
2023-04-18T18:50:36.524Z,99893.78
2023-04-18T18:53:06.192Z,99901.22
2023-04-18T18:55:34.055Z,99913.13
2023-04-18T18:58:02.578Z,99891.34
2023-04-18T19:00:32.752Z,99893.31
2023-04-18T19:03:03.521Z,99883.66
2023-04-18T19:05:32.745Z,99871.34
2023-04-18T19:08:03.982Z,99856.88
2023-04-18T19:10:34.166Z,99834.84
2023-04-18T19:13:01.986Z,99830.88
2023-04-18T19:15:29.824Z,99827.72
2023-04-18T19:17:57.650Z,99823.22
2023-04-18T19:20:27.530Z,99814.28
2023-04-18T19:22:58.257Z,99816.19
2023-04-18T19:25:28.658Z,99815.78
2023-04-18T19:27:56.437Z,99821.06
2023-04-18T19:30:25.049Z,99825.47
2023-04-18T19:32:54.164Z,99825.25
2023-04-18T19:35:22.048Z,99819.78
2023-04-18T19:37:49.834Z,99822.94
2023-04-18T19:40:19.050Z,99817.91
2023-04-18T19:42:47.034Z,99822.09
2023-04-18T19:45:15.472Z,99821.81
2023-04-18T19:47:48.031Z,99824.19
2023-04-18T19:50:15.848Z,99830.91
2023-04-18T19:52:43.575Z,99827.78
2023-04-18T19:55:11.824Z,99820.84
2023-04-18T19:57:43.340Z,99821.56
2023-04-18T20:00:14.745Z,99812.88
2023-04-18T20:02:44.300Z,99820.00
2023-04-18T20:05:13.162Z,99816.75
2023-04-18T20:07:41.631Z,99826.72
2023-04-18T20:10:12.835Z,99821.25
2023-04-18T20:12:41.984Z,99827.78
2023-04-18T20:15:10.749Z,99826.50
2023-04-18T20:17:38.714Z,99816.00
2023-04-18T20:20:09.300Z,99824.00
2023-04-18T20:22:38.657Z,99831.75
2023-04-18T20:25:07.389Z,99831.84
2023-04-18T20:27:35.404Z,99841.22
2023-04-18T20:30:08.551Z,99847.53
2023-04-18T20:32:37.048Z,99842.56
2023-04-18T20:35:05.370Z,99846.84
2023-04-18T20:37:37.117Z,99839.94
2023-04-18T20:40:08.015Z,99837.88
2023-04-18T20:42:36.687Z,99856.56
2023-04-18T20:45:11.240Z,99853.06
2023-04-18T20:47:41.258Z,99859.59
2023-04-18T20:50:09.721Z,99868.09
2023-04-18T20:52:42.661Z,99869.34
2023-04-18T20:55:10.946Z,99861.38
2023-04-18T20:57:38.823Z,99854.53
2023-04-18T21:00:10.555Z,99869.56
2023-04-18T21:02:38.458Z,99863.03
2023-04-18T21:05:07.111Z,99849.19
2023-04-18T21:07:35.531Z,99862.22
2023-04-18T21:10:03.420Z,99862.44
2023-04-18T21:12:31.270Z,99872.09
2023-04-18T21:14:59.122Z,99878.84
2023-04-18T21:17:28.427Z,99891.41
2023-04-18T21:19:56.337Z,99892.34
2023-04-18T21:22:24.185Z,99889.50
2023-04-18T21:24:52.389Z,99905.31
2023-04-18T21:27:20.436Z,99909.38
2023-04-18T21:29:48.206Z,99933.44
2023-04-18T21:32:16.326Z,99932.56
2023-04-18T21:34:45.688Z,99955.66
2023-04-18T21:37:13.643Z,99948.44
2023-04-18T21:39:42.521Z,99940.69
2023-04-18T21:42:11.343Z,99958.81
2023-04-18T21:44:39.493Z,99946.03
2023-04-18T21:47:07.452Z,99918.44
2023-04-18T21:49:35.716Z,99905.72
2023-04-18T21:52:05.120Z,99926.38
2023-04-18T21:54:33.038Z,99912.03
2023-04-18T21:57:02.795Z,99889.22
2023-04-18T21:59:31.189Z,99888.28
2023-04-18T22:01:59.326Z,99896.84
2023-04-18T22:04:27.864Z,99894.44
2023-04-18T22:06:56.812Z,99895.56
2023-04-18T22:09:26.167Z,99889.44
2023-04-18T22:11:56.907Z,99887.28
2023-04-18T22:14:26.077Z,99901.28
2023-04-18T22:16:54.093Z,99893.88
2023-04-18T22:19:22.005Z,99882.97
2023-04-18T22:21:49.979Z,99866.59
2023-04-18T22:24:18.436Z,99831.13
2023-04-18T22:26:47.569Z,99833.56
2023-04-18T22:29:15.429Z,99827.66
2023-04-18T22:31:43.443Z,99812.88
2023-04-18T22:34:11.445Z,99837.00
2023-04-18T22:36:39.257Z,99838.94
2023-04-18T22:39:07.485Z,99854.38
2023-04-18T22:41:35.301Z,99846.97
2023-04-18T22:44:04.801Z,99825.47
2023-04-18T22:46:32.928Z,99789.56
2023-04-18T22:49:00.904Z,99805.44
2023-04-18T22:51:29.043Z,99796.22
2023-04-18T22:53:57.242Z,99805.91
2023-04-18T22:56:25.078Z,99780.34
2023-04-18T22:58:53.078Z,99756.50
2023-04-18T23:01:22.310Z,99754.13
2023-04-18T23:03:50.526Z,99726.78
2023-04-18T23:06:18.586Z,99726.06
2023-04-18T23:08:46.662Z,99710.41
2023-04-18T23:11:14.558Z,99705.78
2023-04-18T23:13:42.533Z,99697.22
2023-04-18T23:16:10.580Z,99686.72
2023-04-18T23:18:40.118Z,99696.78
2023-04-18T23:21:08.299Z,99676.03
2023-04-18T23:23:36.299Z,99671.63
2023-04-18T23:26:04.339Z,99687.25
2023-04-18T23:28:32.232Z,99674.31
2023-04-18T23:31:00.322Z,99673.06
2023-04-18T23:33:28.372Z,99670.09
2023-04-18T23:35:57.619Z,99647.97
2023-04-18T23:38:25.536Z,99638.84
2023-04-18T23:40:53.349Z,99634.13
2023-04-18T23:43:21.535Z,99630.44
2023-04-18T23:45:49.457Z,99623.63
2023-04-18T23:48:17.484Z,99618.16
2023-04-18T23:50:46.348Z,99621.50
2023-04-18T23:53:16.522Z,99605.38
2023-04-18T23:55:44.389Z,99604.34
2023-04-18T23:58:12.262Z,99604.97
